Dollar Bay, Michigan
Current Conditions -  °F | °C
As of 4:53 PM on Saturday 25 Oct 2014 (Local Time) from KCMX Reporting Station
Clear Clear  
Wind Chill: 52°   Ceiling: Unl
Heat Index: 52°   Visibility: 10mi
Dew Point: 35°   Wind: 26mph
Humidity: 53%   Direction: 280°W
Pressure: 29.74"   Gusts: 39mph
Location:  47.12°N, 88.5°W
Report Text: KCMX 252053Z AUTO 28023G34KT 10SM CLR 11/02 A2974 RMK AO2 PK WND 26039/2010 SLP074 T01110017 52006
Loading
Personal Weather Stations






























Interactive Weather Map
Tropical Storm Tracking
New forecast layout! Learn more

10-Day Weather Forecast

Advertisements
Track Severe Weather on mobile